Time;durP1;ratioP1;P1;durP2;ratioP2;P2;SDS_P1;SDS_P2;PMS_P1;PMS_P2;Temp;Humidity;BMP_temperature;BMP_pressure;BME280_temperature;BME280_humidity;BME280_pressure;Samples;Min_cycle;Max_cycle;Signal;HPM_P1;HPM_P2
2022/10/05 00:01:26;;;;;;;13.13;1.80;;;16.20;99.90;;;;;;5033485;28;20052;-72
2022/10/05 00:04:17;;;;;;;11.07;1.60;;;16.20;99.90;;;;;;5034825;28;20056;-72
2022/10/05 00:06:55;;;;;;;7.93;1.60;;;16.20;99.90;;;;;;5035850;28;20053;-72
2022/10/05 00:09:23;;;;;;;9.70;1.55;;;16.20;99.90;;;;;;5017133;28;20064;-72
2022/10/05 00:11:50;;;;;;;11.05;1.85;;;16.20;99.90;;;;;;5035241;28;20053;-72
2022/10/05 00:14:34;;;;;;;10.65;1.75;;;16.20;99.90;;;;;;5033376;28;20503;-72
2022/10/05 00:17:04;;;;;;;9.35;1.67;;;16.20;99.90;;;;;;5035424;28;20045;-72
2022/10/05 00:19:36;;;;;;;11.27;1.65;;;16.30;99.90;;;;;;5035702;28;20068;-72
2022/10/05 00:22:14;;;;;;;7.82;1.50;;;16.30;99.90;;;;;;5034184;28;20384;-72
2022/10/05 00:24:43;;;;;;;11.82;1.52;;;16.30;99.90;;;;;;5035250;28;20464;-72
2022/10/05 00:27:17;;;;;;;7.90;1.50;;;16.30;99.90;;;;;;5034954;28;20041;-71
2022/10/05 00:29:47;;;;;;;8.13;1.35;;;16.30;99.90;;;;;;5032752;28;20050;-72
2022/10/05 00:32:15;;;;;;;8.65;1.50;;;16.40;99.90;;;;;;5034212;28;20368;-72
2022/10/05 00:34:44;;;;;;;6.80;1.45;;;16.30;99.90;;;;;;5033884;28;20472;-72
2022/10/05 00:37:13;;;;;;;7.75;1.70;;;16.30;99.90;;;;;;5034022;28;20037;-72
2022/10/05 00:39:41;;;;;;;7.32;1.70;;;16.40;99.90;;;;;;5017629;28;20049;-72
2022/10/05 00:42:37;;;;;;;13.63;1.58;;;16.40;99.90;;;;;;5032937;28;20052;-72
2022/10/05 00:45:17;;;;;;;9.48;1.38;;;16.40;99.90;;;;;;5034442;28;20037;-72
2022/10/05 00:47:57;;;;;;;7.75;1.48;;;16.40;99.90;;;;;;5033665;28;20054;-72
2022/10/05 00:50:51;;;;;;;8.77;1.15;;;16.40;99.90;;;;;;5034098;28;20052;-72
2022/10/05 00:53:41;;;;;;;9.98;1.60;;;16.40;99.90;;;;;;5015614;28;20042;-72
2022/10/05 00:56:35;;;;;;;7.43;0.98;;;16.30;99.90;;;;;;5016393;28;20065;-72
2022/10/05 00:59:06;;;;;;;11.98;1.67;;;16.20;99.90;;;;;;5033756;28;20054;-72
2022/10/05 01:01:50;;;;;;;8.15;1.40;;;16.20;99.90;;;;;;5033923;28;20140;-72
2022/10/05 01:04:30;;;;;;;6.53;1.33;;;16.10;99.90;;;;;;5032478;28;20057;-72
2022/10/05 01:07:29;;;;;;;8.00;1.40;;;16.00;99.90;;;;;;5014681;28;20046;-72
2022/10/05 01:10:14;;;;;;;5.50;1.23;;;16.00;99.90;;;;;;5015138;28;20057;-72
2022/10/05 01:12:55;;;;;;;7.30;1.20;;;16.00;99.90;;;;;;4997951;28;20050;-72
2022/10/05 01:15:46;;;;;;;6.93;1.20;;;16.00;99.90;;;;;;4997128;28;20049;-72
2022/10/05 01:18:28;;;;;;;7.40;1.30;;;16.00;99.90;;;;;;4998018;28;20056;-72
2022/10/05 01:21:09;;;;;;;10.73;1.40;;;16.10;99.90;;;;;;4980641;28;20046;-72
2022/10/05 01:23:51;;;;;;;7.82;1.40;;;16.00;99.90;;;;;;5014767;28;20054;-73
2022/10/05 01:26:33;;;;;;;5.43;1.00;;;16.10;99.90;;;;;;4998135;28;20046;-72
2022/10/05 01:29:03;;;;;;;6.90;1.15;;;16.10;99.90;;;;;;5013702;28;20361;-72
2022/10/05 01:31:44;;;;;;;4.88;1.25;;;16.10;99.90;;;;;;4997526;28;20385;-71
2022/10/05 01:34:27;;;;;;;11.88;1.58;;;16.00;99.90;;;;;;4996622;28;20376;-72
2022/10/05 01:37:10;;;;;;;7.78;1.23;;;16.00;99.90;;;;;;5015078;28;20046;-72
2022/10/05 01:39:47;;;;;;;9.60;1.38;;;16.10;99.90;;;;;;5014901;28;20045;-72
2022/10/05 01:42:36;;;;;;;10.05;1.40;;;16.10;99.90;;;;;;4999867;28;20057;-72
2022/10/05 01:45:27;;;;;;;8.75;1.40;;;16.10;99.90;;;;;;5001598;28;20050;-72
2022/10/05 01:48:50;;;;;;;10.50;1.52;;;16.20;99.90;;;;;;5000342;28;20046;-72
2022/10/05 01:51:36;;;;;;;4.90;1.23;;;16.20;99.90;;;;;;4923309;29;20052;-72
2022/10/05 01:54:31;;;;;;;8.07;1.30;;;16.20;99.90;;;;;;5012780;28;20145;-71
2022/10/05 01:57:20;;;;;;;10.05;1.40;;;16.20;99.90;;;;;;4985016;28;20388;-72
2022/10/05 02:00:07;;;;;;;8.60;1.52;;;16.20;99.90;;;;;;5017988;28;20050;-72
2022/10/05 02:03:04;;;;;;;8.43;1.60;;;16.20;99.90;;;;;;4999964;28;20053;-72
2022/10/05 02:05:46;;;;;;;7.15;1.55;;;16.30;99.90;;;;;;5022480;28;20054;-72
2022/10/05 02:08:26;;;;;;;7.15;1.20;;;16.30;99.90;;;;;;5019627;28;20045;-72
2022/10/05 02:11:07;;;;;;;7.82;1.50;;;16.30;99.90;;;;;;5037281;28;20370;-72
2022/10/05 02:14:01;;;;;;;9.13;1.52;;;16.30;99.90;;;;;;5037669;28;20372;-72
2022/10/05 02:16:45;;;;;;;5.70;1.40;;;16.30;99.90;;;;;;5019635;28;20048;-72
2022/10/05 02:19:19;;;;;;;11.35;1.50;;;16.40;99.90;;;;;;5036750;28;20472;-72
2022/10/05 02:21:57;;;;;;;11.55;1.70;;;16.40;99.90;;;;;;5035472;28;20056;-72
2022/10/05 02:24:30;;;;;;;8.57;1.40;;;16.40;99.90;;;;;;5036591;28;20049;-72
2022/10/05 02:26:57;;;;;;;7.68;1.63;;;16.40;99.90;;;;;;5037100;28;20049;-72
2022/10/05 02:29:28;;;;;;;12.68;1.70;;;16.40;99.90;;;;;;5035631;28;20045;-72
2022/10/05 02:32:03;;;;;;;8.20;1.58;;;16.40;99.90;;;;;;5036547;28;20041;-72
2022/10/05 02:34:41;;;;;;;12.23;1.65;;;16.40;99.90;;;;;;5035541;28;20052;-72
2022/10/05 02:37:42;;;;;;;6.97;1.50;;;16.30;99.90;;;;;;5036541;28;20457;-72
2022/10/05 02:40:38;;;;;;;11.27;1.60;;;16.40;99.90;;;;;;5019990;28;20404;-72
2022/10/05 02:43:19;;;;;;;12.23;1.50;;;16.40;99.90;;;;;;5035101;28;20045;-72
2022/10/05 02:45:52;;;;;;;8.63;1.70;;;16.40;99.90;;;;;;5036605;28;20060;-72
2022/10/05 02:48:52;;;;;;;8.10;1.48;;;16.40;99.90;;;;;;5035019;28;20041;-72
2022/10/05 02:51:36;;;;;;;6.15;1.77;;;16.40;99.90;;;;;;5035911;28;20048;-72
2022/10/05 02:54:09;;;;;;;9.77;1.60;;;16.40;99.90;;;;;;5036189;28;20053;-72
2022/10/05 02:56:50;;;;;;;10.90;1.80;;;16.40;99.90;;;;;;5036971;28;20041;-72
2022/10/05 02:59:39;;;;;;;10.98;1.70;;;16.50;99.90;;;;;;5035881;28;20380;-72
2022/10/05 03:02:30;;;;;;;9.98;1.85;;;16.40;99.90;;;;;;5035478;28;20049;-72
2022/10/05 03:05:03;;;;;;;6.78;1.60;;;16.50;99.90;;;;;;5028818;28;20049;-72
2022/10/05 03:07:44;;;;;;;8.73;1.40;;;16.50;99.90;;;;;;4998769;28;20049;-71
2022/10/05 03:10:27;;;;;;;8.85;1.60;;;16.50;99.90;;;;;;5000054;28;20045;-72
2022/10/05 03:13:01;;;;;;;7.03;1.50;;;16.50;99.90;;;;;;4999742;28;20064;-72
2022/10/05 03:15:52;;;;;;;9.55;1.55;;;16.50;99.90;;;;;;5015798;28;20038;-72
2022/10/05 03:18:49;;;;;;;14.43;1.83;;;16.50;99.90;;;;;;4990612;28;20068;-71
2022/10/05 03:21:29;;;;;;;8.38;1.80;;;16.50;99.90;;;;;;4998647;28;20469;-72
2022/10/05 03:24:19;;;;;;;7.18;1.80;;;16.50;99.90;;;;;;4999567;28;20060;-72
2022/10/05 03:27:03;;;;;;;9.60;1.80;;;16.50;99.90;;;;;;4999528;28;20057;-72
2022/10/05 03:29:54;;;;;;;11.55;1.70;;;16.50;99.90;;;;;;4982566;28;20045;-72
2022/10/05 03:32:31;;;;;;;9.07;1.70;;;16.50;99.90;;;;;;4999454;28;20049;-72
2022/10/05 03:35:12;;;;;;;10.95;1.45;;;16.50;99.90;;;;;;4982357;28;20046;-72
2022/10/05 03:38:20;;;;;;;6.63;1.42;;;16.50;99.90;;;;;;4999403;28;20044;-72
2022/10/05 03:41:10;;;;;;;9.35;1.88;;;16.50;99.90;;;;;;4974423;28;20474;-72
2022/10/05 03:44:16;;;;;;;7.40;1.45;;;16.50;99.90;;;;;;4997496;28;20054;-72
2022/10/05 03:46:50;;;;;;;12.02;1.60;;;16.50;99.90;;;;;;4968449;28;20054;-72
2022/10/05 03:49:46;;;;;;;9.45;1.88;;;16.50;99.90;;;;;;4997676;28;20045;-72
2022/10/05 03:52:33;;;;;;;10.43;1.60;;;16.60;99.90;;;;;;4999151;28;20057;-72
2022/10/05 03:55:03;;;;;;;7.70;1.90;;;16.50;99.90;;;;;;4997658;28;20472;-72
2022/10/05 03:57:37;;;;;;;10.90;1.83;;;16.50;99.90;;;;;;4998955;28;20038;-72
2022/10/05 04:00:22;;;;;;;13.98;2.20;;;16.50;99.90;;;;;;5014788;28;20054;-72
2022/10/05 04:03:20;;;;;;;10.93;1.80;;;16.50;99.90;;;;;;4997269;28;20119;-72
2022/10/05 04:05:52;;;;;;;11.77;1.80;;;16.50;99.90;;;;;;5024257;28;20065;-72
2022/10/05 04:08:31;;;;;;;6.43;1.65;;;16.50;99.90;;;;;;5034032;28;20053;-72
2022/10/05 04:11:06;;;;;;;6.95;1.65;;;16.50;99.90;;;;;;5018525;28;20338;-72
2022/10/05 04:13:39;;;;;;;8.00;1.60;;;16.50;99.90;;;;;;5035767;28;20045;-72
2022/10/05 04:16:33;;;;;;;11.52;2.20;;;16.50;99.90;;;;;;5017192;28;20045;-72
2022/10/05 04:19:22;;;;;;;9.65;1.67;;;16.50;99.90;;;;;;5033325;28;20069;-72
2022/10/05 04:22:07;;;;;;;7.93;1.63;;;16.40;99.90;;;;;;5017441;28;20068;-72
2022/10/05 04:25:05;;;;;;;20.27;1.92;;;16.40;99.90;;;;;;5034308;28;20053;-72
2022/10/05 04:27:40;;;;;;;11.57;2.17;;;16.40;99.90;;;;;;5024777;28;20057;-72
2022/10/05 04:30:18;;;;;;;15.48;2.28;;;16.40;99.90;;;;;;5034427;28;20037;-71
2022/10/05 04:32:53;;;;;;;11.48;2.10;;;16.40;99.90;;;;;;5034166;28;20041;-72
2022/10/05 04:35:30;;;;;;;11.43;1.88;;;16.40;99.90;;;;;;5033344;28;20046;-72
2022/10/05 04:38:19;;;;;;;11.68;1.80;;;16.40;99.90;;;;;;5034514;28;20472;-71
2022/10/05 04:41:25;;;;;;;15.13;2.03;;;16.40;99.90;;;;;;5033422;28;20061;-71
2022/10/05 04:44:11;;;;;;;10.45;1.75;;;16.40;99.90;;;;;;5034233;28;20049;-71
2022/10/05 04:46:55;;;;;;;11.02;1.90;;;16.40;99.90;;;;;;5034000;28;20045;-72
2022/10/05 04:49:37;;;;;;;10.18;1.70;;;16.40;99.90;;;;;;5033089;28;20042;-72
2022/10/05 04:52:22;;;;;;;11.85;1.98;;;16.40;99.90;;;;;;5035232;28;20444;-72
2022/10/05 04:55:08;;;;;;;12.75;2.00;;;16.50;99.90;;;;;;5033195;28;20460;-72
2022/10/05 04:58:04;;;;;;;14.80;2.17;;;16.40;99.90;;;;;;5034140;28;20052;-72
2022/10/05 05:00:57;;;;;;;9.38;2.03;;;16.40;99.90;;;;;;5033986;28;20479;-72
2022/10/05 05:03:44;;;;;;;9.27;1.77;;;16.40;99.90;;;;;;5034055;28;20045;-71
2022/10/05 05:06:37;;;;;;;12.73;2.28;;;16.40;99.90;;;;;;5033705;28;20053;-72
2022/10/05 05:09:17;;;;;;;11.57;1.80;;;16.50;99.90;;;;;;5032580;28;20495;-72
2022/10/05 05:12:02;;;;;;;13.20;2.30;;;16.50;99.90;;;;;;5034652;28;20033;-71
2022/10/05 05:14:45;;;;;;;9.30;1.65;;;16.50;99.90;;;;;;5032909;28;20045;-72
2022/10/05 05:17:31;;;;;;;12.48;2.17;;;16.40;99.90;;;;;;5038140;28;20479;-72
2022/10/05 05:20:25;;;;;;;12.57;2.40;;;16.50;99.90;;;;;;5038611;28;20041;-71
2022/10/05 05:23:11;;;;;;;12.65;2.05;;;16.50;99.90;;;;;;5040359;28;20044;-72
2022/10/05 05:25:51;;;;;;;12.95;1.90;;;16.50;99.90;;;;;;5059003;28;20045;-72
2022/10/05 05:28:28;;;;;;;7.97;1.63;;;16.50;99.90;;;;;;5056394;28;20052;-72
2022/10/05 05:31:01;;;;;;;12.25;2.05;;;16.40;99.90;;;;;;5057476;28;20045;-72
2022/10/05 05:33:38;;;;;;;10.27;1.58;;;16.50;99.90;;;;;;5057563;28;20052;-72
2022/10/05 05:36:11;;;;;;;10.45;1.73;;;16.40;99.90;;;;;;5056432;28;20464;-72
2022/10/05 05:39:19;;;;;;;11.05;2.00;;;16.40;99.90;;;;;;5041206;28;20056;-72
2022/10/05 05:42:10;;;;;;;7.53;1.75;;;16.40;99.90;;;;;;5056158;28;20107;-72
2022/10/05 05:44:49;;;;;;;13.85;2.10;;;16.40;99.90;;;;;;5057542;28;20048;-72
2022/10/05 05:47:50;;;;;;;11.50;2.20;;;16.40;99.90;;;;;;5057320;28;20045;-72
2022/10/05 05:50:37;;;;;;;9.95;1.90;;;16.40;99.90;;;;;;5043956;28;20048;-72
2022/10/05 05:53:28;;;;;;;12.70;2.40;;;16.50;99.90;;;;;;5057363;28;20044;-72
2022/10/05 05:56:09;;;;;;;12.95;2.30;;;16.40;99.90;;;;;;5055813;28;20044;-72
2022/10/05 05:58:52;;;;;;;9.75;2.28;;;16.40;99.90;;;;;;5056866;28;20049;-72
2022/10/05 06:01:32;;;;;;;8.85;1.83;;;16.40;99.90;;;;;;5056147;28;20041;-72
2022/10/05 06:04:25;;;;;;;13.50;2.03;;;16.40;99.90;;;;;;5057151;28;20067;-72
2022/10/05 06:06:56;;;;;;;11.27;2.00;;;16.40;99.90;;;;;;5020259;28;20464;-72
2022/10/05 06:09:46;;;;;;;14.18;2.10;;;16.50;99.90;;;;;;5019359;28;20443;-72
2022/10/05 06:12:26;;;;;;;16.90;2.17;;;16.40;99.90;;;;;;5020588;28;20041;-72
2022/10/05 06:15:28;;;;;;;9.75;2.05;;;16.40;99.90;;;;;;5019268;28;20041;-72
2022/10/05 06:18:00;;;;;;;13.23;2.05;;;16.40;99.90;;;;;;5020502;28;20376;-72
2022/10/05 06:20:35;;;;;;;13.18;2.05;;;16.40;99.90;;;;;;5020127;28;20049;-72
2022/10/05 06:23:12;;;;;;;11.82;2.10;;;16.40;99.90;;;;;;5036543;28;20049;-72
2022/10/05 06:25:54;;;;;;;13.07;1.80;;;16.40;99.90;;;;;;5019952;28;20038;-72
2022/10/05 06:28:25;;;;;;;11.77;2.15;;;16.50;99.90;;;;;;5035242;28;20282;-72
2022/10/05 06:31:09;;;;;;;10.75;1.85;;;16.50;99.90;;;;;;5019917;28;20049;-72
2022/10/05 06:34:21;;;;;;;14.25;2.28;;;16.50;99.90;;;;;;5019944;28;20037;-72
2022/10/05 06:36:58;;;;;;;11.20;1.67;;;16.50;99.90;;;;;;4959913;28;20042;-72
2022/10/05 06:39:59;;;;;;;9.40;1.83;;;16.40;99.90;;;;;;4925282;29;20073;-72
2022/10/05 06:42:46;;;;;;;11.93;1.75;;;16.40;99.90;;;;;;4988986;28;20057;-73
2022/10/05 06:45:57;;;;;;;11.25;2.00;;;16.40;99.90;;;;;;4984446;28;20058;-73
2022/10/05 06:49:01;;;;;;;8.15;1.80;;;16.40;99.90;;;;;;4972663;28;20054;-74
2022/10/05 06:52:00;;;;;;;11.55;1.90;;;16.50;99.90;;;;;;4985626;28;20049;-72
2022/10/05 06:54:42;;;;;;;7.57;1.58;;;16.50;99.90;;;;;;4998483;28;20045;-72
2022/10/05 06:57:20;;;;;;;10.63;1.63;;;16.60;99.90;;;;;;4999638;28;20488;-72
2022/10/05 07:00:00;;;;;;;8.95;1.85;;;16.60;99.90;;;;;;4999592;28;20045;-72
2022/10/05 07:02:52;;;;;;;8.93;1.70;;;16.70;99.90;;;;;;4998650;28;20048;-72
2022/10/05 07:05:43;;;;;;;8.60;1.60;;;16.70;99.90;;;;;;5017660;28;20069;-72
2022/10/05 07:08:25;;;;;;;9.48;1.70;;;16.70;99.90;;;;;;5034352;28;20037;-72
2022/10/05 07:11:33;;;;;;;9.20;2.05;;;16.70;99.90;;;;;;5036190;28;20052;-72
2022/10/05 07:14:12;;;;;;;14.70;2.10;;;16.80;99.90;;;;;;5052283;28;20057;-74
2022/10/05 07:16:53;;;;;;;8.23;1.65;;;16.80;99.90;;;;;;5019103;28;20048;-73
2022/10/05 07:19:53;;;;;;;9.93;1.48;;;16.80;99.90;;;;;;5035266;28;20046;-73
2022/10/05 07:22:45;;;;;;;8.77;1.60;;;16.90;99.90;;;;;;5033766;28;20064;-73
2022/10/05 07:25:21;;;;;;;8.95;1.40;;;17.00;99.90;;;;;;5035184;28;20041;-76
2022/10/05 07:28:05;;;;;;;8.38;1.40;;;17.00;99.90;;;;;;5034080;28;20049;-75
2022/10/05 07:31:00;;;;;;;12.38;1.80;;;17.10;99.90;;;;;;5034995;28;20483;-76
2022/10/05 07:33:50;;;;;;;10.63;1.65;;;17.10;99.90;;;;;;5033184;28;20056;-72
2022/10/05 07:39:13;;;;;;;7.05;1.60;;;17.30;99.90;;;;;;5040956;28;20049;-77
2022/10/05 07:41:46;;;;;;;7.57;1.40;;;17.30;99.90;;;;;;5032806;28;20049;-73
2022/10/05 07:44:35;;;;;;;10.40;1.70;;;17.30;99.90;;;;;;5017958;28;20069;-74
2022/10/05 07:47:30;;;;;;;6.85;1.35;;;17.30;99.90;;;;;;5035000;28;20060;-75
2022/10/05 07:50:10;;;;;;;8.00;1.58;;;17.30;99.90;;;;;;5051507;28;20041;-74
2022/10/05 07:52:42;;;;;;;8.75;1.25;;;17.30;99.90;;;;;;5035960;28;20475;-73
2022/10/05 07:55:19;;;;;;;7.15;1.48;;;17.30;99.90;;;;;;5050204;28;20045;-73
2022/10/05 07:58:22;;;;;;;10.25;1.48;;;17.40;99.90;;;;;;5035406;28;20045;-73
2022/10/05 08:01:12;;;;;;;9.98;1.42;;;17.50;99.90;;;;;;5017439;28;20057;-73
2022/10/05 08:04:09;;;;;;;10.50;1.48;;;17.60;99.90;;;;;;5034572;28;20467;-72
2022/10/05 08:07:05;;;;;;;14.90;1.83;;;17.60;99.90;;;;;;5034984;28;20057;-72
2022/10/05 08:10:14;;;;;;;8.52;1.63;;;17.60;99.90;;;;;;5034270;28;20056;-72
2022/10/05 08:12:54;;;;;;;10.15;1.80;;;17.70;99.90;;;;;;5025446;28;20045;-72
2022/10/05 08:15:31;;;;;;;11.77;2.00;;;17.70;99.90;;;;;;5033502;28;20050;-73
2022/10/05 08:18:04;;;;;;;7.97;2.08;;;17.80;99.90;;;;;;5035318;28;20045;-72
2022/10/05 08:20:53;;;;;;;8.02;1.80;;;17.80;99.90;;;;;;5035358;28;20056;-73
2022/10/05 08:23:45;;;;;;;9.63;1.77;;;17.80;99.90;;;;;;5035403;28;20057;-72
2022/10/05 08:26:31;;;;;;;10.80;1.80;;;17.70;99.90;;;;;;5035013;28;20467;-72
2022/10/05 08:28:59;;;;;;;11.23;1.77;;;17.60;99.90;;;;;;5034477;28;20049;-73
2022/10/05 08:31:36;;;;;;;13.18;1.95;;;17.60;99.90;;;;;;5034322;28;20046;-72
2022/10/05 08:34:26;;;;;;;13.77;2.03;;;17.50;99.90;;;;;;5034354;28;20048;-72
2022/10/05 08:37:07;;;;;;;10.50;2.10;;;17.50;99.90;;;;;;5034830;28;20045;-73
2022/10/05 08:39:41;;;;;;;10.80;2.03;;;17.40;99.90;;;;;;5035119;28;20045;-73
2022/10/05 08:42:29;;;;;;;11.38;2.13;;;17.30;99.90;;;;;;5034331;28;20057;-72
2022/10/05 08:45:29;;;;;;;9.48;2.10;;;17.30;99.90;;;;;;4995703;28;20053;-72
2022/10/05 08:48:30;;;;;;;12.68;2.00;;;17.30;99.90;;;;;;5033327;28;20376;-73
2022/10/05 08:50:58;;;;;;;10.75;1.77;;;17.30;99.90;;;;;;5034626;28;20364;-72
2022/10/05 08:53:37;;;;;;;13.38;2.40;;;17.30;99.90;;;;;;5034809;28;20052;-72
2022/10/05 08:56:13;;;;;;;10.52;1.90;;;17.30;99.90;;;;;;5033659;28;20053;-72
2022/10/05 08:58:58;;;;;;;16.65;1.90;;;17.30;99.90;;;;;;5033841;28;20379;-73
2022/10/05 09:01:42;;;;;;;13.75;2.00;;;17.40;99.90;;;;;;5033526;28;20050;-72
2022/10/05 09:04:31;;;;;;;13.95;1.60;;;17.50;99.90;;;;;;5033414;28;20349;-73
2022/10/05 09:07:39;;;;;;;13.68;1.98;;;17.60;99.90;;;;;;4997773;28;20050;-73
2022/10/05 09:10:47;;;;;;;12.23;2.00;;;17.70;99.90;;;;;;4917389;29;20067;-72
2022/10/05 09:13:48;;;;;;;12.45;1.98;;;17.80;99.90;;;;;;5015076;28;20046;-72
2022/10/05 09:16:40;;;;;;;16.27;2.33;;;17.90;99.90;;;;;;5013640;28;20372;-72
2022/10/05 09:19:38;;;;;;;12.45;2.20;;;18.00;99.90;;;;;;5014876;28;20050;-73
2022/10/05 09:22:36;;;;;;;14.20;2.20;;;18.00;99.90;;;;;;5013633;28;20461;-72
2022/10/05 09:25:25;;;;;;;10.02;1.83;;;18.10;99.90;;;;;;4973271;28;20385;-72
2022/10/05 09:28:14;;;;;;;10.73;1.83;;;18.20;99.90;;;;;;5014055;28;20053;-71
2022/10/05 09:31:19;;;;;;;10.52;1.65;;;18.20;99.90;;;;;;5014563;28;20058;-73
2022/10/05 09:33:56;;;;;;;8.52;1.67;;;18.40;99.80;;;;;;4997534;28;20377;-73
2022/10/05 09:36:55;;;;;;;9.07;1.75;;;18.60;99.70;;;;;;4996654;28;20049;-73
2022/10/05 09:39:49;;;;;;;10.60;1.80;;;18.60;99.10;;;;;;5014430;28;20050;-73
2022/10/05 09:42:39;;;;;;;12.77;1.88;;;18.60;99.40;;;;;;4996500;28;20058;-73
2022/10/05 09:45:34;;;;;;;8.18;1.80;;;18.70;99.40;;;;;;5014732;28;20050;-73
2022/10/05 09:48:40;;;;;;;11.68;1.88;;;18.60;99.30;;;;;;4996754;28;20061;-73
2022/10/05 09:51:16;;;;;;;14.25;2.17;;;18.60;99.30;;;;;;5014724;28;20445;-73
2022/10/05 09:53:55;;;;;;;12.30;1.80;;;18.70;99.20;;;;;;5014433;28;20484;-73
2022/10/05 09:56:56;;;;;;;17.10;1.92;;;18.70;99.30;;;;;;5013372;28;20046;-73
2022/10/05 09:59:30;;;;;;;17.05;2.35;;;18.70;99.00;;;;;;5014561;28;20046;-73
2022/10/05 10:02:19;;;;;;;9.43;1.50;;;18.80;99.00;;;;;;4997702;28;20050;-73
2022/10/05 10:05:05;;;;;;;12.27;2.25;;;19.00;99.10;;;;;;5018039;28;20369;-73
2022/10/05 10:08:05;;;;;;;10.27;1.95;;;19.10;98.80;;;;;;4999732;28;20358;-73
2022/10/05 10:10:54;;;;;;;14.90;2.10;;;19.30;98.30;;;;;;4918597;28;20054;-72
2022/10/05 10:13:44;;;;;;;12.98;2.17;;;19.50;98.30;;;;;;5001190;28;20054;-73
2022/10/05 10:16:16;;;;;;;10.23;2.30;;;19.60;98.30;;;;;;5016752;28;20051;-73
2022/10/05 10:18:47;;;;;;;10.93;1.83;;;19.80;97.90;;;;;;5000638;28;20050;-73
2022/10/05 10:21:41;;;;;;;12.48;2.08;;;19.90;97.50;;;;;;4999986;28;20045;-73
2022/10/05 10:24:13;;;;;;;10.05;2.55;;;19.90;97.50;;;;;;4973553;28;20054;-73
2022/10/05 10:27:15;;;;;;;14.63;2.53;;;19.90;97.50;;;;;;5000769;28;20057;-73
2022/10/05 10:29:54;;;;;;;11.80;2.10;;;19.90;97.50;;;;;;5016460;28;20053;-73
2022/10/05 10:32:43;;;;;;;13.52;2.22;;;19.90;97.60;;;;;;5017807;28;20050;-72
2022/10/05 10:35:20;;;;;;;11.45;2.22;;;20.00;97.20;;;;;;5016316;28;20046;-73
2022/10/05 10:38:21;;;;;;;15.77;2.60;;;20.00;97.20;;;;;;5017305;28;20161;-73
2022/10/05 10:40:54;;;;;;;13.65;2.17;;;20.00;96.90;;;;;;5016598;28;20120;-73
2022/10/05 10:43:52;;;;;;;11.57;2.17;;;20.00;97.10;;;;;;5000274;28;20042;-73
2022/10/05 10:46:47;;;;;;;11.73;2.45;;;19.90;97.00;;;;;;4999897;28;20058;-73
2022/10/05 10:49:53;;;;;;;10.07;2.08;;;19.80;97.10;;;;;;4999037;28;20042;-73
2022/10/05 10:52:46;;;;;;;12.25;2.33;;;19.70;97.00;;;;;;5016840;28;20046;-73
2022/10/05 10:55:30;;;;;;;13.38;2.35;;;19.60;97.30;;;;;;5016321;28;20042;-73
2022/10/05 10:58:09;;;;;;;15.38;2.55;;;19.60;97.40;;;;;;5017392;28;20464;-73
2022/10/05 11:01:00;;;;;;;13.10;2.60;;;19.60;97.40;;;;;;5017127;28;20165;-73
2022/10/05 11:03:49;;;;;;;14.82;2.45;;;19.60;97.50;;;;;;5000200;28;20068;-73
2022/10/05 11:06:35;;;;;;;13.98;2.65;;;19.70;97.50;;;;;;5033222;28;20076;-73
2022/10/05 11:09:11;;;;;;;14.43;2.60;;;20.00;97.40;;;;;;5035555;28;20060;-73
2022/10/05 11:12:00;;;;;;;14.50;2.10;;;20.30;97.30;;;;;;5036684;28;20056;-73
2022/10/05 11:14:59;;;;;;;19.02;2.63;;;20.50;96.90;;;;;;5040909;28;20057;-72
2022/10/05 11:17:40;;;;;;;15.60;2.60;;;20.60;96.70;;;;;;5056104;28;20041;-72
2022/10/05 11:20:41;;;;;;;18.40;2.38;;;20.80;96.30;;;;;;5056165;28;20483;-72
2022/10/05 11:23:39;;;;;;;12.57;2.30;;;20.90;96.10;;;;;;5055073;28;20045;-72
2022/10/05 11:26:44;;;;;;;18.10;2.28;;;21.00;96.10;;;;;;5056033;28;20041;-72
2022/10/05 11:29:37;;;;;;;13.15;2.72;;;21.10;95.70;;;;;;5053848;28;20072;-72
2022/10/05 11:32:31;;;;;;;13.90;2.30;;;21.10;95.70;;;;;;5038208;28;20049;-72
2022/10/05 11:35:33;;;;;;;19.40;2.38;;;21.10;95.60;;;;;;5024651;28;20364;-72
2022/10/05 11:38:38;;;;;;;19.42;2.60;;;20.90;95.60;;;;;;5055664;28;20045;-72
2022/10/05 11:41:15;;;;;;;15.93;2.40;;;20.80;95.70;;;;;;5054537;28;20045;-72
2022/10/05 11:43:52;;;;;;;15.68;2.47;;;20.60;95.90;;;;;;5055260;28;20472;-72
2022/10/05 11:46:37;;;;;;;13.98;2.55;;;20.60;95.80;;;;;;5055397;28;20049;-72
2022/10/05 11:49:27;;;;;;;16.92;2.70;;;20.40;96.10;;;;;;5053607;28;20068;-72
2022/10/05 11:52:20;;;;;;;11.25;2.30;;;20.40;96.40;;;;;;5055234;28;20045;-72
2022/10/05 11:55:12;;;;;;;14.55;2.10;;;20.40;96.30;;;;;;5054317;28;20045;-72
2022/10/05 11:58:06;;;;;;;13.25;2.20;;;20.30;96.40;;;;;;5054364;28;20049;-72
2022/10/05 12:00:41;;;;;;;11.43;2.28;;;20.30;96.70;;;;;;5055430;28;20045;-72
2022/10/05 12:03:35;;;;;;;15.90;2.42;;;20.30;96.80;;;;;;5053900;28;20049;-72
2022/10/05 12:06:22;;;;;;;15.13;2.53;;;20.30;96.90;;;;;;5042021;28;20384;-72
2022/10/05 12:09:22;;;;;;;14.35;2.42;;;20.20;97.10;;;;;;5054006;28;20060;-73
2022/10/05 12:12:20;;;;;;;17.63;2.60;;;20.20;97.20;;;;;;5037059;28;20045;-72
2022/10/05 12:14:51;;;;;;;13.20;2.53;;;20.30;97.30;;;;;;5033999;28;20056;-73
2022/10/05 12:17:37;;;;;;;12.10;2.45;;;20.40;97.40;;;;;;5035087;28;20037;-72
2022/10/05 12:20:20;;;;;;;11.43;2.22;;;20.50;97.50;;;;;;5035092;28;20046;-73
2022/10/05 12:22:59;;;;;;;17.30;2.50;;;20.50;97.60;;;;;;5033022;28;20502;-73
2022/10/05 12:25:56;;;;;;;15.33;2.77;;;20.60;97.60;;;;;;5034817;28;20045;-73
2022/10/05 12:28:33;;;;;;;10.50;2.38;;;20.70;97.70;;;;;;5034222;28;20286;-73
2022/10/05 12:31:10;;;;;;;13.50;2.15;;;20.60;97.90;;;;;;5055731;28;20374;-73
2022/10/05 12:34:24;;;;;;;13.35;2.47;;;20.60;98.10;;;;;;5055230;28;20045;-72
2022/10/05 12:37:12;;;;;;;12.50;2.40;;;20.50;98.40;;;;;;5055049;28;20467;-72
2022/10/05 12:39:45;;;;;;;6.40;2.15;;;20.40;99.00;;;;;;5053859;28;20048;-72
2022/10/05 12:42:31;;;;;;;9.75;2.15;;;20.40;99.60;;;;;;5053608;28;20055;-72
2022/10/05 12:45:04;;;;;;;9.02;1.83;;;20.20;99.90;;;;;;5037033;28;20056;-74
2022/10/05 12:47:47;;;;;;;14.23;2.20;;;20.00;99.90;;;;;;5037157;28;20348;-73
2022/10/05 12:50:37;;;;;;;10.00;2.15;;;19.60;99.90;;;;;;5050419;28;20045;-73
2022/10/05 12:53:23;;;;;;;11.20;2.22;;;19.30;99.90;;;;;;5039162;28;20045;-73
2022/10/05 12:56:22;;;;;;;8.60;1.90;;;19.00;99.90;;;;;;5032822;28;20070;-74
2022/10/05 12:59:18;;;;;;;18.20;2.88;;;18.70;99.90;;;;;;5025815;28;20049;-71
2022/10/05 13:02:05;;;;;;;13.75;2.60;;;18.40;99.90;;;;;;5036235;28;20068;-72
2022/10/05 13:04:41;;;;;;;10.65;2.30;;;18.20;99.90;;;;;;5046555;28;20038;-72
2022/10/05 13:07:27;;;;;;;19.25;3.05;;;18.00;99.90;;;;;;5022670;28;20046;-72
2022/10/05 13:10:23;;;;;;;18.02;3.00;;;17.80;99.90;;;;;;5015048;28;20059;-72
2022/10/05 13:13:19;;;;;;;14.55;2.60;;;17.60;99.90;;;;;;5013336;28;20057;-71
2022/10/05 13:16:16;;;;;;;20.85;3.15;;;17.50;99.90;;;;;;5033434;28;20061;-72
2022/10/05 13:18:55;;;;;;;28.20;3.50;;;17.40;99.90;;;;;;5034447;28;20045;-73
2022/10/05 13:21:27;;;;;;;24.52;3.70;;;17.50;99.90;;;;;;5033429;28;20046;-73
2022/10/05 13:24:00;;;;;;;22.95;3.88;;;17.50;99.90;;;;;;5016883;28;20084;-75
2022/10/05 13:26:40;;;;;;;17.10;3.08;;;17.60;99.90;;;;;;5034308;28;20049;-72
2022/10/05 13:29:36;;;;;;;26.63;3.85;;;17.70;99.90;;;;;;5029430;28;20056;-71
2022/10/05 13:32:22;;;;;;;21.95;3.78;;;17.90;99.90;;;;;;5033703;28;20057;-71
2022/10/05 13:35:19;;;;;;;25.80;3.75;;;18.00;99.90;;;;;;5033097;28;20156;-71
2022/10/05 13:38:02;;;;;;;;;;;18.10;99.90;;;;;;5020434;28;20042;-71
2022/10/05 13:41:23;;;;;;;24.48;3.60;;;18.10;99.90;;;;;;5021252;28;19920;-71
2022/10/05 13:43:53;;;;;;;27.83;4.55;;;18.10;99.90;;;;;;5006965;28;20061;-72
2022/10/05 13:46:32;;;;;;;21.65;3.42;;;18.10;99.90;;;;;;5038418;28;20049;-73
2022/10/05 13:49:20;;;;;;;16.55;3.25;;;18.10;99.90;;;;;;5013906;28;20041;-73
2022/10/05 13:52:15;;;;;;;16.42;2.78;;;18.10;99.90;;;;;;5021074;28;20041;-72
2022/10/05 13:54:54;;;;;;;21.73;2.95;;;18.10;99.90;;;;;;5017423;28;20041;-72
2022/10/05 13:57:45;;;;;;;17.60;2.60;;;18.00;99.90;;;;;;5018174;28;20050;-73
2022/10/05 14:00:15;;;;;;;12.82;2.83;;;17.90;99.90;;;;;;5001178;28;20053;-72
2022/10/05 14:02:47;;;;;;;12.60;2.72;;;17.80;99.90;;;;;;5017025;28;20060;-71
2022/10/05 14:05:17;;;;;;;24.63;3.50;;;17.70;99.90;;;;;;5017628;28;20045;-71
2022/10/05 14:07:57;;;;;;;23.70;3.60;;;17.70;99.90;;;;;;5036746;28;20052;-72
2022/10/05 14:10:41;;;;;;;19.23;2.92;;;17.50;99.90;;;;;;5036864;28;20045;-71
2022/10/05 14:13:37;;;;;;;16.48;2.35;;;17.40;99.90;;;;;;5036615;28;20049;-72
2022/10/05 14:16:22;;;;;;;13.45;2.35;;;17.10;99.90;;;;;;5035412;28;20044;-72
2022/10/05 14:18:56;;;;;;;11.65;2.00;;;17.00;99.90;;;;;;5038368;28;20049;-72